Terminal Aerodrome Forecast
Issued by NWS Sterling, VA

Home | Current Version | Previous Version | Text Only | Print | Product List | Glossary On
Versions: 1 2 3 4 5 6 7 8 9 10 11 12 13 14 15 16 17 18 19 20
000
FTUS41 KLWX 290721 AAA
TAFMRB
TAF AMD
KMRB 290721Z 2907/3006 VRB03KT 1SM -DZ BR OVC003
     FM291500 09004KT 3SM -DZ BR OVC008
     FM291700 10005KT 5SM BR OVC015
     FM292100 09006KT P6SM OVC025
     FM300200 VRB03KT P6SM OVC010
     FM300400 VRB03KT 3SM -DZ BR OVC008=

USA.gov is the U.S. government's official web portal to all federal, state and local government web resources and services.